Pagrindinis puslapis
METAR-TAF:

METAR-TAF

Oro uostai :

Sundsvalis-Herniosandas, Švedija

platuma: 62-32N, ilguma: 017-27E, Aukštis: 4 m

Dabartinis oras

Ataskaita buvo paskelbta 37 minutes, ne 03:50 UTC
Vėjas 1 kt nuo kintamojo kryptimis
Temperatūra -2°C
Drėgmė 100%
Slėgis 987 hPa
Matomumas 10 km arba daugiau

METAR: ESNN 020350Z AUTO VRB01KT 9999 NCD M02/M02 Q0987

Laikas: 06:27 (04:27 UTC)

Prognozė

Ataskaita buvo paskelbta 15 valandos ir 57 minutes, ne 12:30 UTC
Prognozė galioja nuo 01 metu 13 UTC su 01 metu 15 UTC
Vėjas 6 kt iš Vakarų
Matomumas 10 km arba daugiau
nėra debesų žemiau 1500 m ir nėra kamuolinių lietaus debesų

TAF: ESNN 011230Z 0113/0115 27006KT CAVOK

Orai ataskaitas ir orų prognozės (METAR, TAF).

turimą stotys yra geltonos ir raudonos taškus žemėlapyje.

Perkelti pele per norėdami pamatyti stoties vardą.

Tada spustelėkite, norėdami matyti oro stebėjimo ir prognozės.

Norėdami pakeisti žemėlapį: spustelėkite ant žalios mygtukų su juodo kryžiaus žemyn,; žalią mygtuką su brūkšneliu, jei norite nutolinti; arba žalių rodyklių gretimoms žemėlapius.


METAR-TAF: